HISTORICAL SENSOR DATA

Sensor Data Report

DB LIVE
CURRENT TIME--:--:--
DEVICE NETWORK Gateway Status
13 ESP · realtime ~1s · history 60s
Weather WS-MOD-01
ONLINE
Actuator ACT-MOD-01
OFFLINE
Mainboard L3 MB-L3-01
ONLINE
Mainboard L5 MB-L5-01
ONLINE
Remote AC AC-REMOTE-01
ONLINE
PZEM L3-01 PWR-L3-01
OFFLINE
PZEM L3-02 PWR-L3-02
OFFLINE
PZEM L3-03 PWR-L3-03
OFFLINE
PZEM L3-04 PWR-L3-04
OFFLINE
PZEM L5-01 PWR-L5-01
ONLINE
PZEM L5-02 PWR-L5-02
ONLINE
PZEM L5-03 PWR-L5-03
OFFLINE
PZEM L5-04 PWR-L5-04
OFFLINE
REPORT FILTER

Periode & Sensor

DATABASE HISTORY
RESET
QUICK RANGE Hari ini 7 hari 30 hari
PERIODE01 Sep 2026sampai 07 Sep 2026
TOTAL DATA93,244sensor readings
MINIMUM-0.50sesuai filter
AVERAGE71.64sesuai filter
MAXIMUM32,564.20sesuai filter
REPORT RESULT

Data Sensor

01/09/2026 — 07/09/2026 EXPORT CSV
NOTANGGALWAKTUDEVICECHANNELSENSORVALUEUNIT
1 07/09/2026 06:16:00 MB-L3-01Mainboard Lantai 3 L3-LUX-06 Illuminance / LUX 6 337.40 lux
2 07/09/2026 06:16:00 MB-L5-01Mainboard Lantai 5 L5-LUX-04 Illuminance / LUX 4 114.10 lux
3 07/09/2026 06:16:00 WS-MOD-01Weather Station Module WS-WIND Kecepatan Angin 6.34 m/s
4 07/09/2026 06:16:00 MB-L5-01Mainboard Lantai 5 L5-AI-06 Analog Input 6 3.05 V
5 07/09/2026 06:16:00 MB-L3-01Mainboard Lantai 3 L3-SHT-02-T SHT20 2 Temperature 28.00 °C
6 07/09/2026 06:16:00 MB-L3-01Mainboard Lantai 3 L3-AI-05 Analog Input 5 3.12 V
7 07/09/2026 06:16:00 PWR-L5-01Power Meter L5 PZEM 01 PZEM-L5-01-CURR PZEM L5-01 Current 0.12 A
8 07/09/2026 06:16:00 AC-REMOTE-01Remote AC AC-POWER AC Power State 1.00 state
9 07/09/2026 06:16:00 MB-L5-01Mainboard Lantai 5 L5-HFT-02 Heat Flow Temperature 2 21.90 °C
10 07/09/2026 06:16:00 MB-L5-01Mainboard Lantai 5 L5-LUX-02 Illuminance / LUX 2 594.50 lux
11 07/09/2026 06:16:00 MB-L3-01Mainboard Lantai 3 L3-SHT-01-T SHT20 1 Temperature 27.80 °C
12 07/09/2026 06:16:00 PWR-L5-02Power Meter L5 PZEM 02 PZEM-L5-02-POWER PZEM L5-02 Active Power 0.00 W
13 07/09/2026 06:16:00 MB-L5-01Mainboard Lantai 5 L5-AI-05 Analog Input 5 3.05 V
14 07/09/2026 06:16:00 MB-L3-01Mainboard Lantai 3 L3-AI-04 Analog Input 4 3.12 V
15 07/09/2026 06:16:00 MB-L3-01Mainboard Lantai 3 L3-LUX-02 Illuminance / LUX 2 172.90 lux
16 07/09/2026 06:16:00 MB-L5-01Mainboard Lantai 5 L5-SHT-03-T SHT20 3 Temperature 28.10 °C
17 07/09/2026 06:16:00 MB-L5-01Mainboard Lantai 5 L5-SHT-02-T SHT20 2 Temperature 28.20 °C
18 07/09/2026 06:16:00 WS-MOD-01Weather Station Module WS-TEMP Suhu Udara 18.60 °C
19 07/09/2026 06:16:00 MB-L3-01Mainboard Lantai 3 L3-RAD-02 Radiation 2 1.00 W/m²
20 07/09/2026 06:16:00 MB-L5-01Mainboard Lantai 5 L5-HFT-01 Heat Flow Temperature 1 22.70 °C
21 07/09/2026 06:16:00 MB-L3-01Mainboard Lantai 3 L3-RAD-01 Radiation 1 1.00 W/m²
22 07/09/2026 06:16:00 AC-REMOTE-01Remote AC AC-SETPOINT AC Set Temperature 23.00 °C
23 07/09/2026 06:16:00 MB-L3-01Mainboard Lantai 3 L3-AI-03 Analog Input 3 3.12 V
24 07/09/2026 06:16:00 MB-L3-01Mainboard Lantai 3 L3-SHT-01-RH SHT20 1 Humidity 47.20 %RH
25 07/09/2026 06:16:00 MB-L5-01Mainboard Lantai 5 L5-LUX-03 Illuminance / LUX 3 196.70 lux
26 07/09/2026 06:16:00 PWR-L5-01Power Meter L5 PZEM 01 PZEM-L5-01-ENERGY PZEM L5-01 Energy 0.13 kWh
27 07/09/2026 06:16:00 PWR-L5-02Power Meter L5 PZEM 02 PZEM-L5-02-ENERGY PZEM L5-02 Energy 0.04 kWh
28 07/09/2026 06:16:00 MB-L5-01Mainboard Lantai 5 L5-AI-04 Analog Input 4 3.05 V
29 07/09/2026 06:16:00 MB-L5-01Mainboard Lantai 5 L5-SHT-01-T SHT20 1 Temperature 27.80 °C
30 07/09/2026 06:16:00 MB-L5-01Mainboard Lantai 5 L5-RAD-01 Radiation 1 1.00 W/m²
31 07/09/2026 06:16:00 MB-L5-01Mainboard Lantai 5 L5-ST-02 Surface Temperature 2 22.10 °C
32 07/09/2026 06:16:00 MB-L5-01Mainboard Lantai 5 L5-BGT-03 Black Globe Temperature 3 25.80 °C
33 07/09/2026 06:16:00 WS-MOD-01Weather Station Module WS-RH Kelembapan Udara 79.80 %RH
34 07/09/2026 06:16:00 MB-L3-01Mainboard Lantai 3 L3-AI-02 Analog Input 2 3.12 V
35 07/09/2026 06:16:00 PWR-L5-01Power Meter L5 PZEM 01 PZEM-L5-01-VOLT PZEM L5-01 Voltage 223.70 V
36 07/09/2026 06:16:00 MB-L3-01Mainboard Lantai 3 L3-LUX-01 Illuminance / LUX 1 106.60 lux
37 07/09/2026 06:16:00 MB-L3-01Mainboard Lantai 3 L3-LUX-04 Illuminance / LUX 4 106.00 lux
38 07/09/2026 06:16:00 MB-L5-01Mainboard Lantai 5 L5-AI-03 Analog Input 3 3.05 V
39 07/09/2026 06:16:00 PWR-L5-02Power Meter L5 PZEM 02 PZEM-L5-02-FREQ PZEM L5-02 Frequency 50.00 Hz
40 07/09/2026 06:16:00 MB-L3-01Mainboard Lantai 3 L3-LUX-03 Illuminance / LUX 3 193.30 lux
41 07/09/2026 06:16:00 MB-L3-01Mainboard Lantai 3 L3-AI-01 Analog Input 1 3.12 V
42 07/09/2026 06:16:00 AC-REMOTE-01Remote AC AC-MODE AC Operating Mode 1.00 code
43 07/09/2026 06:16:00 PWR-L5-01Power Meter L5 PZEM 01 PZEM-L5-01-PF PZEM L5-01 Power Factor 0.39
44 07/09/2026 06:16:00 MB-L5-01Mainboard Lantai 5 L5-BGT-02 Black Globe Temperature 2 25.90 °C
45 07/09/2026 06:16:00 WS-MOD-01Weather Station Module WS-PRES Tekanan Udara 911.00 hPa
46 07/09/2026 06:16:00 MB-L5-01Mainboard Lantai 5 L5-LUX-05 Illuminance / LUX 5 439.40 lux
47 07/09/2026 06:16:00 MB-L5-01Mainboard Lantai 5 L5-SHT-01-RH SHT20 1 Humidity 47.40 %RH
48 07/09/2026 06:16:00 MB-L5-01Mainboard Lantai 5 L5-SHT-03-RH SHT20 3 Humidity 47.10 %RH
49 07/09/2026 06:16:00 MB-L5-01Mainboard Lantai 5 L5-ST-01 Surface Temperature 1 22.70 °C
50 07/09/2026 06:16:00 MB-L5-01Mainboard Lantai 5 L5-AI-02 Analog Input 2 3.05 V
51 07/09/2026 06:16:00 WS-MOD-01Weather Station Module WS-DIR Arah Angin 50.10 °
52 07/09/2026 06:16:00 PWR-L5-02Power Meter L5 PZEM 02 PZEM-L5-02-PF PZEM L5-02 Power Factor 0.00
53 07/09/2026 06:16:00 PWR-L5-01Power Meter L5 PZEM 01 PZEM-L5-01-POWER PZEM L5-01 Active Power 10.80 W
54 07/09/2026 06:16:00 MB-L5-01Mainboard Lantai 5 L5-BGT-01 Black Globe Temperature 1 26.00 °C
55 07/09/2026 06:16:00 MB-L3-01Mainboard Lantai 3 L3-SHT-03-RH SHT20 3 Humidity 46.40 %RH
56 07/09/2026 06:16:00 PWR-L5-02Power Meter L5 PZEM 02 PZEM-L5-02-VOLT PZEM L5-02 Voltage 223.60 V
57 07/09/2026 06:16:00 MB-L5-01Mainboard Lantai 5 L5-SHT-02-RH SHT20 2 Humidity 46.60 %RH
58 07/09/2026 06:16:00 MB-L3-01Mainboard Lantai 3 L3-LUX-05 Illuminance / LUX 5 611.70 lux
59 07/09/2026 06:16:00 MB-L3-01Mainboard Lantai 3 L3-SHT-03-T SHT20 3 Temperature 28.10 °C
60 07/09/2026 06:16:00 MB-L5-01Mainboard Lantai 5 L5-LUX-06 Illuminance / LUX 6 199.60 lux
61 07/09/2026 06:16:00 MB-L3-01Mainboard Lantai 3 L3-SHT-02-RH SHT20 2 Humidity 46.60 %RH
62 07/09/2026 06:16:00 AC-REMOTE-01Remote AC AC-FAN AC Fan Speed 0.00 code
63 07/09/2026 06:16:00 MB-L5-01Mainboard Lantai 5 L5-RAD-02 Radiation 2 1.00 W/m²
64 07/09/2026 06:16:00 MB-L5-01Mainboard Lantai 5 L5-AI-01 Analog Input 1 3.05 V
65 07/09/2026 06:16:00 PWR-L5-01Power Meter L5 PZEM 01 PZEM-L5-01-FREQ PZEM L5-01 Frequency 50.00 Hz
66 07/09/2026 06:16:00 MB-L3-01Mainboard Lantai 3 L3-AI-06 Analog Input 6 3.12 V
67 07/09/2026 06:16:00 MB-L5-01Mainboard Lantai 5 L5-LUX-01 Illuminance / LUX 1 130.50 lux
68 07/09/2026 06:16:00 PWR-L5-02Power Meter L5 PZEM 02 PZEM-L5-02-CURR PZEM L5-02 Current 0.00 A
69 07/09/2026 06:15:00 MB-L5-01Mainboard Lantai 5 L5-AI-05 Analog Input 5 3.05 V
70 07/09/2026 06:15:00 MB-L3-01Mainboard Lantai 3 L3-AI-04 Analog Input 4 3.12 V
71 07/09/2026 06:15:00 MB-L3-01Mainboard Lantai 3 L3-LUX-02 Illuminance / LUX 2 169.60 lux
72 07/09/2026 06:15:00 MB-L5-01Mainboard Lantai 5 L5-SHT-03-T SHT20 3 Temperature 28.00 °C
73 07/09/2026 06:15:00 MB-L5-01Mainboard Lantai 5 L5-SHT-02-T SHT20 2 Temperature 28.20 °C
74 07/09/2026 06:15:00 WS-MOD-01Weather Station Module WS-TEMP Suhu Udara 18.60 °C
75 07/09/2026 06:15:00 MB-L3-01Mainboard Lantai 3 L3-RAD-02 Radiation 2 1.00 W/m²
76 07/09/2026 06:15:00 MB-L5-01Mainboard Lantai 5 L5-HFT-01 Heat Flow Temperature 1 22.50 °C
77 07/09/2026 06:15:00 MB-L3-01Mainboard Lantai 3 L3-RAD-01 Radiation 1 1.00 W/m²
78 07/09/2026 06:15:00 AC-REMOTE-01Remote AC AC-SETPOINT AC Set Temperature 23.00 °C
79 07/09/2026 06:15:00 MB-L3-01Mainboard Lantai 3 L3-AI-03 Analog Input 3 3.12 V
80 07/09/2026 06:15:00 MB-L3-01Mainboard Lantai 3 L3-SHT-01-RH SHT20 1 Humidity 47.20 %RH
81 07/09/2026 06:15:00 MB-L5-01Mainboard Lantai 5 L5-LUX-03 Illuminance / LUX 3 193.10 lux
82 07/09/2026 06:15:00 PWR-L5-01Power Meter L5 PZEM 01 PZEM-L5-01-ENERGY PZEM L5-01 Energy 0.13 kWh
83 07/09/2026 06:15:00 PWR-L5-02Power Meter L5 PZEM 02 PZEM-L5-02-ENERGY PZEM L5-02 Energy 0.04 kWh
84 07/09/2026 06:15:00 MB-L5-01Mainboard Lantai 5 L5-AI-04 Analog Input 4 3.05 V
85 07/09/2026 06:15:00 MB-L5-01Mainboard Lantai 5 L5-SHT-01-T SHT20 1 Temperature 27.80 °C
86 07/09/2026 06:15:00 MB-L5-01Mainboard Lantai 5 L5-RAD-01 Radiation 1 1.00 W/m²
87 07/09/2026 06:15:00 MB-L5-01Mainboard Lantai 5 L5-ST-02 Surface Temperature 2 22.20 °C
88 07/09/2026 06:15:00 MB-L5-01Mainboard Lantai 5 L5-BGT-03 Black Globe Temperature 3 25.70 °C
89 07/09/2026 06:15:00 WS-MOD-01Weather Station Module WS-RH Kelembapan Udara 79.90 %RH
90 07/09/2026 06:15:00 MB-L3-01Mainboard Lantai 3 L3-AI-02 Analog Input 2 3.12 V
91 07/09/2026 06:15:00 PWR-L5-01Power Meter L5 PZEM 01 PZEM-L5-01-VOLT PZEM L5-01 Voltage 223.70 V
92 07/09/2026 06:15:00 MB-L3-01Mainboard Lantai 3 L3-LUX-01 Illuminance / LUX 1 104.40 lux
93 07/09/2026 06:15:00 MB-L3-01Mainboard Lantai 3 L3-LUX-04 Illuminance / LUX 4 103.70 lux
94 07/09/2026 06:15:00 MB-L5-01Mainboard Lantai 5 L5-AI-03 Analog Input 3 3.05 V
95 07/09/2026 06:15:00 PWR-L5-02Power Meter L5 PZEM 02 PZEM-L5-02-FREQ PZEM L5-02 Frequency 50.00 Hz
96 07/09/2026 06:15:00 MB-L3-01Mainboard Lantai 3 L3-LUX-03 Illuminance / LUX 3 189.70 lux
97 07/09/2026 06:15:00 MB-L3-01Mainboard Lantai 3 L3-AI-01 Analog Input 1 3.12 V
98 07/09/2026 06:15:00 AC-REMOTE-01Remote AC AC-MODE AC Operating Mode 1.00 code
99 07/09/2026 06:15:00 PWR-L5-01Power Meter L5 PZEM 01 PZEM-L5-01-PF PZEM L5-01 Power Factor 0.39
100 07/09/2026 06:15:00 MB-L5-01Mainboard Lantai 5 L5-BGT-02 Black Globe Temperature 2 25.80 °C
Menampilkan maksimal 100 data per halaman
PAGE 1 NEXT →